Time;durP1;ratioP1;P1;durP2;ratioP2;P2;SDS_P1;SDS_P2;PMS_P1;PMS_P2;Temp;Humidity;BMP_temperature;BMP_pressure;BME280_temperature;BME280_humidity;BME280_pressure;Samples;Min_cycle;Max_cycle;Signal;HPM_P1;HPM_P2
2024/02/02 00:01:33;;;;;;;49.95;30.50;;;;;;;5.12;100.00;98194.53;4961480;28;20375;-70
2024/02/02 00:03:58;;;;;;;44.83;29.42;;;;;;;5.13;100.00;98188.81;4961784;28;20077;-69
2024/02/02 00:06:24;;;;;;;47.92;30.52;;;;;;;5.14;100.00;98187.69;4956586;28;20059;-71
2024/02/02 00:08:49;;;;;;;46.22;30.48;;;;;;;5.09;100.00;98185.06;4968585;28;20043;-69
2024/02/02 00:11:15;;;;;;;47.35;29.13;;;;;;;5.09;100.00;98193.19;4954502;28;20050;-68
2024/02/02 00:13:40;;;;;;;48.15;29.63;;;;;;;5.11;100.00;98187.47;4960837;28;20129;-70
2024/02/02 00:16:05;;;;;;;52.08;31.60;;;;;;;5.08;100.00;98190.81;4956789;28;20097;-71
2024/02/02 00:18:31;;;;;;;55.58;32.30;;;;;;;5.04;100.00;98197.91;4962401;28;20051;-69
2024/02/02 00:20:56;;;;;;;51.97;31.20;;;;;;;4.98;100.00;98194.47;4960609;28;20106;-70
2024/02/02 00:23:23;;;;;;;179.80;36.20;;;;;;;4.89;100.00;98198.94;4958717;28;20035;-71
2024/02/02 00:25:48;;;;;;;191.30;37.65;;;;;;;4.81;100.00;98196.84;4962118;28;20401;-68
2024/02/02 00:28:13;;;;;;;45.00;30.17;;;;;;;4.73;100.00;98199.13;4955421;28;20126;-69
2024/02/02 00:30:40;;;;;;;44.28;28.40;;;;;;;4.79;100.00;98189.84;4960583;28;20601;-73
2024/02/02 00:33:06;;;;;;;53.75;32.30;;;;;;;4.79;100.00;98191.75;4951922;28;20089;-69
2024/02/02 00:35:32;;;;;;;57.20;32.47;;;;;;;4.79;100.00;98197.97;4958925;28;20047;-70
2024/02/02 00:37:58;;;;;;;46.65;30.35;;;;;;;4.82;100.00;98207.44;4960882;28;20042;-70
2024/02/02 00:40:24;;;;;;;47.03;29.95;;;;;;;4.86;100.00;98205.78;4954741;28;20046;-69
2024/02/02 00:42:49;;;;;;;48.00;30.83;;;;;;;4.84;100.00;98215.28;4960610;28;20101;-70
2024/02/02 00:45:15;;;;;;;44.03;29.05;;;;;;;4.85;100.00;98217.72;4954893;28;20039;-71
2024/02/02 00:47:41;;;;;;;41.92;27.83;;;;;;;4.93;100.00;98227.94;4959981;28;20043;-69
2024/02/02 00:50:07;;;;;;;46.15;28.33;;;;;;;4.95;100.00;98223.00;4957975;28;20050;-77
2024/02/02 00:52:33;;;;;;;45.35;27.95;;;;;;;5.01;100.00;98236.53;4960586;28;20046;-72
2024/02/02 00:54:59;;;;;;;45.55;28.88;;;;;;;4.96;100.00;98232.75;4959900;28;20129;-72
2024/02/02 00:57:25;;;;;;;45.60;28.20;;;;;;;5.04;100.00;98242.19;4954304;28;20039;-72
2024/02/02 00:59:50;;;;;;;46.88;27.73;;;;;;;5.06;100.00;98247.28;4960221;28;20054;-69
2024/02/02 01:02:17;;;;;;;50.92;28.88;;;;;;;5.08;100.00;98247.84;4955242;28;20039;-70
2024/02/02 01:04:42;;;;;;;50.38;28.17;;;;;;;5.11;100.00;98248.06;4966879;28;20043;-70
2024/02/02 01:07:08;;;;;;;48.83;28.00;;;;;;;5.16;100.00;98260.75;4954800;28;20054;-71
2024/02/02 01:09:35;;;;;;;58.10;27.27;;;;;;;5.24;100.00;98251.94;4960337;28;20049;-69
2024/02/02 01:12:00;;;;;;;112.15;28.48;;;;;;;5.20;100.00;98258.25;4959489;28;20070;-69
2024/02/02 01:14:26;;;;;;;71.15;28.92;;;;;;;5.12;100.00;98252.38;4955008;28;20077;-69
2024/02/02 01:16:51;;;;;;;53.55;27.65;;;;;;;5.15;100.00;98246.38;4959815;28;20031;-72
2024/02/02 01:19:16;;;;;;;81.45;28.92;;;;;;;5.15;100.00;98253.72;4962617;28;20382;-70
2024/02/02 01:21:42;;;;;;;61.78;28.75;;;;;;;5.14;100.00;98254.81;4960383;28;20078;-72
2024/02/02 01:24:07;;;;;;;119.80;28.48;;;;;;;5.14;100.00;98255.59;4959630;28;20043;-71
2024/02/02 01:26:32;;;;;;;58.60;28.73;;;;;;;5.15;100.00;98259.16;4963382;28;20943;-69
2024/02/02 01:28:58;;;;;;;91.07;28.77;;;;;;;5.11;100.00;98255.38;4960046;28;20101;-71
2024/02/02 01:31:23;;;;;;;63.45;29.00;;;;;;;5.08;100.00;98242.41;4954718;28;20057;-68
2024/02/02 01:33:49;;;;;;;64.82;27.55;;;;;;;5.07;100.00;98244.28;4959809;28;20081;-71
2024/02/02 01:36:14;;;;;;;75.35;28.10;;;;;;;4.98;100.00;98232.47;4954363;28;20576;-72
2024/02/02 01:38:40;;;;;;;61.40;28.40;;;;;;;4.92;100.00;98230.94;4957717;28;20039;-71
2024/02/02 01:41:06;;;;;;;57.08;26.92;;;;;;;4.91;100.00;98237.44;4954498;28;20034;-70
2024/02/02 01:43:32;;;;;;;55.50;27.92;;;;;;;5.01;100.00;98239.25;4959655;28;20038;-69
2024/02/02 01:45:57;;;;;;;57.83;26.83;;;;;;;4.97;100.00;98244.44;4958966;28;20074;-69
2024/02/02 01:48:24;;;;;;;55.05;27.27;;;;;;;4.95;100.00;98238.47;4953395;28;20683;-69
2024/02/02 01:50:49;;;;;;;49.15;25.77;;;;;;;4.99;100.00;98242.25;4952860;28;20322;-69
2024/02/02 01:53:15;;;;;;;51.97;24.73;;;;;;;4.95;100.00;98239.31;4958037;28;20054;-72
2024/02/02 01:55:41;;;;;;;53.05;24.45;;;;;;;4.95;100.00;98239.31;4959029;28;20043;-69
2024/02/02 01:58:06;;;;;;;51.78;26.52;;;;;;;4.94;100.00;98232.25;4954842;28;20121;-71
2024/02/02 02:00:32;;;;;;;48.83;24.90;;;;;;;4.93;100.00;98237.97;4959643;28;20110;-70
2024/02/02 02:02:57;;;;;;;59.70;25.50;;;;;;;4.78;100.00;98234.34;4970143;28;20035;-70
2024/02/02 02:05:23;;;;;;;72.65;25.58;;;;;;;4.89;100.00;98235.03;4958999;28;20043;-70
2024/02/02 02:07:48;;;;;;;68.15;25.77;;;;;;;4.84;100.00;98228.84;4963179;28;20545;-68
2024/02/02 02:10:14;;;;;;;63.55;25.23;;;;;;;4.77;100.00;98226.50;4958309;28;20104;-69
2024/02/02 02:12:40;;;;;;;46.40;24.17;;;;;;;4.73;100.00;98228.97;4963265;28;20070;-69
2024/02/02 02:15:06;;;;;;;52.53;26.52;;;;;;;4.69;100.00;98235.28;4958167;28;20452;-69
2024/02/02 02:17:31;;;;;;;55.22;25.17;;;;;;;4.71;100.00;98236.59;4963758;28;20051;-71
2024/02/02 02:19:58;;;;;;;66.30;24.92;;;;;;;4.75;100.00;98243.09;4970559;28;20035;-70
2024/02/02 02:22:24;;;;;;;48.85;26.15;;;;;;;4.69;100.00;98238.81;4958736;28;20137;-69
2024/02/02 02:24:49;;;;;;;48.30;25.33;;;;;;;4.68;100.00;98225.53;4968755;28;20121;-70
2024/02/02 02:27:14;;;;;;;58.60;25.15;;;;;;;4.67;100.00;98229.34;4965215;28;20039;-68
2024/02/02 02:29:40;;;;;;;58.45;25.35;;;;;;;4.63;100.00;98217.44;4964074;28;20093;-69
2024/02/02 02:32:06;;;;;;;118.30;26.25;;;;;;;4.51;100.00;98209.72;4958205;28;20046;-69
2024/02/02 02:34:32;;;;;;;47.83;24.90;;;;;;;4.54;100.00;98211.88;4963705;28;20129;-72
2024/02/02 02:36:57;;;;;;;46.60;25.15;;;;;;;4.56;100.00;98202.34;4962156;28;20126;-71
2024/02/02 02:39:23;;;;;;;56.88;25.02;;;;;;;4.62;100.00;98202.28;4957517;28;20047;-68
2024/02/02 02:41:48;;;;;;;82.82;25.90;;;;;;;4.72;100.00;98196.72;4960565;28;20070;-67
2024/02/02 02:44:14;;;;;;;58.83;25.85;;;;;;;4.64;100.00;98187.31;4956689;28;20559;-69
2024/02/02 02:46:40;;;;;;;46.15;23.85;;;;;;;4.56;100.00;98185.25;4961946;28;20034;-70
2024/02/02 02:49:05;;;;;;;95.95;25.60;;;;;;;4.48;100.00;98177.75;4956682;28;20049;-69
2024/02/02 02:51:31;;;;;;;76.30;25.65;;;;;;;4.43;100.00;98170.50;4962499;28;20046;-71
2024/02/02 02:53:56;;;;;;;89.55;21.35;;;;;;;4.55;100.00;98180.91;4965046;28;20126;-68
2024/02/02 02:56:21;;;;;;;410.50;42.58;;;;;;;4.35;100.00;98184.69;4956882;28;20031;-69
2024/02/02 02:58:47;;;;;;;128.90;20.08;;;;;;;4.18;100.00;98188.69;4961606;28;20070;-68
2024/02/02 03:01:12;;;;;;;117.13;21.88;;;;;;;4.11;100.00;98192.84;4958064;28;20042;-72
2024/02/02 03:03:38;;;;;;;404.95;26.63;;;;;;;3.97;100.00;98192.69;4962805;28;20513;-72
2024/02/02 03:06:04;;;;;;;393.13;26.85;;;;;;;3.71;100.00;98189.41;4956530;28;20109;-75
2024/02/02 03:08:29;;;;;;;425.33;28.40;;;;;;;3.62;100.00;98192.75;4961599;28;20538;-71
2024/02/02 03:10:54;;;;;;;245.75;26.02;;;;;;;3.66;100.00;98190.28;4962226;28;20390;-68
2024/02/02 03:13:20;;;;;;;224.05;24.52;;;;;;;3.63;100.00;98196.25;4956279;28;20042;-69
2024/02/02 03:15:45;;;;;;;62.45;20.67;;;;;;;3.68;100.00;98198.94;4961933;28;20042;-72
2024/02/02 03:18:12;;;;;;;60.65;22.13;;;;;;;3.82;100.00;98183.63;4957720;28;20067;-69
2024/02/02 03:20:37;;;;;;;127.90;26.67;;;;;;;3.83;100.00;98181.72;4962248;28;20043;-69
2024/02/02 03:23:03;;;;;;;226.57;25.75;;;;;;;3.80;100.00;98183.09;4958619;28;20094;-76
2024/02/02 03:25:29;;;;;;;272.85;26.77;;;;;;;3.69;100.00;98180.75;4963553;28;20062;-69
2024/02/02 03:27:54;;;;;;;71.22;22.25;;;;;;;3.79;100.00;98175.25;4969812;28;20116;-68
2024/02/02 03:30:19;;;;;;;56.72;21.45;;;;;;;3.98;100.00;98165.31;4957301;28;20052;-70
2024/02/02 03:32:45;;;;;;;62.17;21.60;;;;;;;4.06;100.00;98172.00;4961589;28;20047;-69
2024/02/02 03:35:10;;;;;;;119.72;23.15;;;;;;;4.07;100.00;98162.78;4957446;28;20051;-71
2024/02/02 03:37:36;;;;;;;82.85;20.10;;;;;;;4.00;100.00;98163.09;4959679;28;20043;-70
2024/02/02 03:40:04;;;;;;;49.10;20.20;;;;;;;4.04;100.00;98176.91;4960277;28;20468;-77
2024/02/02 03:42:29;;;;;;;47.97;19.65;;;;;;;4.09;100.00;98181.44;4960782;28;20061;-70
2024/02/02 03:44:55;;;;;;;53.08;18.73;;;;;;;3.98;100.00;98186.16;4961893;28;20225;-68
2024/02/02 03:47:20;;;;;;;42.72;19.05;;;;;;;3.90;100.00;98184.91;4956281;28;20060;-68
2024/02/02 03:49:46;;;;;;;50.28;19.55;;;;;;;4.00;100.00;98194.84;4960551;28;20050;-72
2024/02/02 03:52:11;;;;;;;46.58;19.38;;;;;;;4.01;100.00;98196.44;4954354;28;20046;-70
2024/02/02 03:54:37;;;;;;;45.50;20.80;;;;;;;3.97;100.00;98190.78;4959837;28;20046;-70
2024/02/02 03:57:02;;;;;;;42.22;18.45;;;;;;;3.95;100.00;98190.25;4962951;28;20069;-77
2024/02/02 03:59:28;;;;;;;79.60;20.17;;;;;;;3.88;100.00;98187.09;4969509;28;20066;-68
2024/02/02 04:01:53;;;;;;;52.92;19.70;;;;;;;3.92;100.00;98193.53;4961117;28;20058;-71
2024/02/02 04:04:19;;;;;;;49.63;19.58;;;;;;;3.89;100.00;98202.28;4971070;28;20031;-70
2024/02/02 04:06:44;;;;;;;41.75;19.50;;;;;;;3.90;100.00;98195.75;4959171;28;20054;-68
2024/02/02 04:09:10;;;;;;;47.28;19.67;;;;;;;3.95;100.00;98192.19;4956976;28;20121;-70
2024/02/02 04:11:37;;;;;;;45.40;20.05;;;;;;;3.91;100.00;98197.38;4961294;28;20165;-71
2024/02/02 04:14:03;;;;;;;58.47;19.67;;;;;;;3.88;100.00;98210.69;4954429;28;20039;-72
2024/02/02 04:16:29;;;;;;;49.65;21.35;;;;;;;3.82;100.00;98196.38;4959946;28;20041;-68
2024/02/02 04:18:54;;;;;;;100.60;20.30;;;;;;;3.63;100.00;98202.47;4953036;28;20462;-69
2024/02/02 04:21:19;;;;;;;188.75;23.85;;;;;;;3.31;100.00;98199.50;4956682;28;20039;-69
2024/02/02 04:23:45;;;;;;;213.57;24.92;;;;;;;3.19;100.00;98200.66;4960714;28;20038;-68
2024/02/02 04:26:10;;;;;;;48.15;22.13;;;;;;;3.20;100.00;98215.00;4955982;28;20066;-69
2024/02/02 04:28:36;;;;;;;52.38;21.85;;;;;;;3.36;100.00;98215.72;4968132;28;20057;-67
2024/02/02 04:31:01;;;;;;;49.17;21.48;;;;;;;3.62;100.00;98213.63;4959090;28;20464;-75
2024/02/02 04:33:27;;;;;;;42.20;20.67;;;;;;;3.62;100.00;98222.56;4960505;28;20039;-68
2024/02/02 04:35:52;;;;;;;45.75;21.55;;;;;;;3.64;100.00;98223.06;4961056;28;20038;-71
2024/02/02 04:38:17;;;;;;;52.88;22.35;;;;;;;3.66;100.00;98228.22;4956299;28;20546;-68
2024/02/02 04:40:46;;;;;;;42.28;20.90;;;;;;;3.73;100.00;98228.69;4956573;28;20042;-67
2024/02/02 04:43:11;;;;;;;62.58;22.35;;;;;;;3.71;100.00;98228.19;4954735;28;20042;-66
2024/02/02 04:45:37;;;;;;;44.03;22.35;;;;;;;3.71;100.00;98236.31;4959146;28;20488;-66
2024/02/02 04:48:09;;;;;;;46.28;21.92;;;;;;;3.76;100.00;98238.16;5091429;27;20430;-70
2024/02/02 04:50:34;;;;;;;42.65;22.15;;;;;;;3.77;100.00;98240.59;5096062;28;20043;-69
2024/02/02 04:53:00;;;;;;;45.63;22.92;;;;;;;3.73;100.00;98230.59;5095984;28;20036;-69
2024/02/02 04:55:25;;;;;;;39.33;21.13;;;;;;;3.79;100.00;98246.53;5090133;28;20055;-68
2024/02/02 04:57:51;;;;;;;40.35;21.48;;;;;;;3.81;100.00;98246.25;5094323;28;20040;-70
2024/02/02 05:00:17;;;;;;;42.47;21.60;;;;;;;3.74;100.00;98246.56;5092147;28;20040;-67
2024/02/02 05:02:42;;;;;;;39.30;21.52;;;;;;;3.74;100.00;98238.44;5094833;28;20040;-67
2024/02/02 05:05:08;;;;;;;39.60;21.08;;;;;;;3.76;100.00;98241.69;5076840;28;20114;-67
2024/02/02 05:07:34;;;;;;;37.78;18.92;;;;;;;3.76;100.00;98241.69;5075407;28;20048;-68
2024/02/02 05:10:01;;;;;;;34.95;20.27;;;;;;;3.72;100.00;98246.03;5075962;28;20044;-68
2024/02/02 05:12:27;;;;;;;42.78;21.70;;;;;;;3.80;100.00;98236.50;5072493;28;20514;-68
2024/02/02 05:14:52;;;;;;;37.13;20.75;;;;;;;3.78;100.00;98250.34;5075277;28;20040;-69
2024/02/02 05:17:18;;;;;;;38.20;20.05;;;;;;;3.74;100.00;98253.88;5068400;28;20044;-66
2024/02/02 05:19:43;;;;;;;38.53;20.08;;;;;;;3.75;100.00;98255.53;5075687;28;20055;-67
2024/02/02 05:22:08;;;;;;;38.92;21.13;;;;;;;3.71;100.00;98254.44;5069552;28;20571;-66
2024/02/02 05:24:37;;;;;;;39.65;21.20;;;;;;;3.76;100.00;98262.53;5075222;28;20438;-66
2024/02/02 05:27:03;;;;;;;37.33;21.88;;;;;;;3.82;100.00;98256.00;5071440;28;20040;-72
2024/02/02 05:29:28;;;;;;;37.92;20.83;;;;;;;3.79;100.00;98251.13;5079129;28;20056;-66
2024/02/02 05:31:53;;;;;;;35.38;19.38;;;;;;;3.77;100.00;98258.75;5075230;28;20493;-67
2024/02/02 05:34:19;;;;;;;35.35;19.13;;;;;;;3.72;100.00;98253.38;5066873;28;20131;-67
2024/02/02 05:36:44;;;;;;;35.58;19.45;;;;;;;3.78;100.00;98242.22;5075004;28;20098;-67
2024/02/02 05:39:10;;;;;;;31.92;18.30;;;;;;;3.78;100.00;98242.22;5070343;28;20503;-69
2024/02/02 05:41:35;;;;;;;32.75;18.00;;;;;;;3.75;100.00;98248.19;5074957;28;20139;-67
2024/02/02 05:44:01;;;;;;;33.28;18.10;;;;;;;3.78;100.00;98249.50;5074044;28;20131;-73
2024/02/02 05:46:26;;;;;;;34.53;18.42;;;;;;;3.82;100.00;98247.88;5068786;28;20497;-68
2024/02/02 05:48:52;;;;;;;35.05;18.63;;;;;;;3.74;100.00;98257.41;5074549;28;20413;-70
2024/02/02 05:51:17;;;;;;;33.65;19.35;;;;;;;3.80;100.00;98264.41;5069337;28;20052;-66
2024/02/02 05:53:42;;;;;;;33.03;18.77;;;;;;;3.74;100.00;98254.69;5074226;28;20044;-68
2024/02/02 05:56:08;;;;;;;31.95;17.88;;;;;;;3.68;100.00;98263.16;5067605;28;20078;-72
2024/02/02 05:58:33;;;;;;;31.05;17.13;;;;;;;3.69;100.00;98270.19;5065864;28;20055;-69
2024/02/02 06:00:59;;;;;;;32.97;17.23;;;;;;;3.77;100.00;98264.16;5064690;28;20052;-69
2024/02/02 06:03:24;;;;;;;34.28;18.38;;;;;;;3.78;100.00;98261.19;5056428;28;20399;-68
2024/02/02 06:05:50;;;;;;;30.80;17.33;;;;;;;3.75;100.00;98250.09;5059973;28;20487;-67
2024/02/02 06:08:15;;;;;;;29.20;16.65;;;;;;;3.76;100.00;98267.97;5056610;28;20050;-67
2024/02/02 06:10:40;;;;;;;30.70;17.23;;;;;;;3.75;100.00;98261.75;5060333;28;20055;-66
2024/02/02 06:13:09;;;;;;;30.20;16.23;;;;;;;3.82;100.00;98274.97;5056099;28;20657;-68
2024/02/02 06:15:34;;;;;;;26.88;16.10;;;;;;;3.85;100.00;98262.75;5060262;28;20041;-68
2024/02/02 06:18:00;;;;;;;28.33;15.57;;;;;;;3.82;100.00;98267.66;5046725;28;20053;-67
2024/02/02 06:20:25;;;;;;;35.13;17.30;;;;;;;3.87;100.00;98265.97;5074920;28;20048;-67
2024/02/02 06:22:51;;;;;;;37.85;17.10;;;;;;;3.84;100.00;98278.19;5077785;28;20052;-71
2024/02/02 06:25:17;;;;;;;32.30;15.35;;;;;;;3.87;100.00;98283.06;5075436;28;20044;-71
2024/02/02 06:27:42;;;;;;;36.47;17.27;;;;;;;3.83;100.00;98287.41;5079937;28;20040;-69
2024/02/02 06:30:08;;;;;;;32.65;18.52;;;;;;;3.82;100.00;98289.31;5084811;28;20051;-66
2024/02/02 06:32:35;;;;;;;36.25;17.88;;;;;;;3.76;100.00;98290.47;5080915;28;20047;-72
2024/02/02 06:35:02;;;;;;;33.85;17.25;;;;;;;3.80;100.00;98282.59;5080525;28;20048;-69
2024/02/02 06:37:28;;;;;;;40.08;19.40;;;;;;;3.83;100.00;98288.25;5075380;28;20036;-70
2024/02/02 06:39:55;;;;;;;42.95;20.65;;;;;;;3.83;100.00;98282.00;5080018;28;20046;-66
2024/02/02 06:42:22;;;;;;;42.03;19.60;;;;;;;3.83;100.00;98300.97;5075449;28;20556;-67
2024/02/02 06:44:48;;;;;;;39.55;18.20;;;;;;;3.85;100.00;98300.69;5069678;28;20716;-66
2024/02/02 06:47:15;;;;;;;39.47;18.42;;;;;;;3.89;100.00;98310.69;5071265;28;20699;-68
2024/02/02 06:49:40;;;;;;;43.85;19.58;;;;;;;3.85;100.00;98301.50;5079229;28;20055;-68
2024/02/02 06:52:06;;;;;;;38.45;19.15;;;;;;;3.85;100.00;98301.50;5075182;28;20130;-68
2024/02/02 06:54:31;;;;;;;37.83;18.67;;;;;;;3.87;100.00;98302.03;5079338;28;20498;-68
2024/02/02 06:56:56;;;;;;;36.33;17.58;;;;;;;3.88;100.00;98306.34;5075631;28;20443;-70
2024/02/02 06:59:22;;;;;;;37.97;16.83;;;;;;;3.93;100.00;98313.66;5053111;28;20348;-69
2024/02/02 07:01:47;;;;;;;41.80;19.20;;;;;;;3.97;100.00;98322.81;5059735;28;20060;-66
2024/02/02 07:04:14;;;;;;;37.58;18.13;;;;;;;3.91;100.00;98311.22;5055060;28;20570;-66
2024/02/02 07:06:40;;;;;;;37.60;18.02;;;;;;;3.94;100.00;98324.22;5059171;28;20481;-68
2024/02/02 07:09:24;;;;;;;40.45;19.95;;;;;;;3.98;100.00;98324.44;5054350;28;20055;-66
2024/02/02 07:11:59;;;;;;;42.80;18.27;;;;;;;3.98;100.00;98316.28;5063533;22;20044;-72
2024/02/02 07:14:43;;;;;;;54.33;25.88;;;;;;;4.00;100.00;98317.66;5035112;28;20413;-72
2024/02/02 07:17:36;;;;;;;52.63;25.95;;;;;;;4.01;100.00;98321.97;5025840;28;20048;-73
2024/02/02 07:20:05;;;;;;;41.55;19.55;;;;;;;4.13;100.00;98320.81;5021365;28;20371;-72
2024/02/02 07:22:41;;;;;;;40.35;18.77;;;;;;;4.06;100.00;98323.03;5041697;28;20044;-73
2024/02/02 07:25:27;;;;;;;42.40;20.75;;;;;;;3.95;100.00;98328.53;5034199;28;20102;-72
2024/02/02 07:27:56;;;;;;;41.97;18.88;;;;;;;4.01;100.00;98340.13;5039411;28;20049;-73
2024/02/02 07:30:41;;;;;;;37.67;17.57;;;;;;;4.12;100.00;98340.88;5033677;28;20486;-71
2024/02/02 07:33:35;;;;;;;41.72;19.38;;;;;;;4.21;100.00;98339.97;5028667;28;20674;-71
2024/02/02 07:36:01;;;;;;;40.15;18.63;;;;;;;4.19;100.00;98341.34;5039259;28;20394;-71
2024/02/02 07:38:43;;;;;;;41.13;18.80;;;;;;;4.14;100.00;98347.63;5036657;28;20056;-71
2024/02/02 07:41:10;;;;;;;37.60;17.40;;;;;;;4.12;100.00;98347.09;5017521;28;20044;-71
2024/02/02 07:43:36;;;;;;;63.25;25.55;;;;;;;4.27;100.00;98338.03;5037308;28;20106;-71
2024/02/02 07:46:04;;;;;;;43.42;21.20;;;;;;;4.27;100.00;98338.03;5036646;28;20044;-71
2024/02/02 07:48:30;;;;;;;47.65;21.20;;;;;;;4.24;100.00;98335.06;5020352;28;20761;-71
2024/02/02 07:50:56;;;;;;;43.45;18.17;;;;;;;4.21;100.00;98341.88;5039816;28;20125;-71
2024/02/02 07:53:22;;;;;;;40.65;18.73;;;;;;;4.25;100.00;98331.25;5049568;28;20570;-72
2024/02/02 07:55:48;;;;;;;42.05;18.27;;;;;;;4.30;100.00;98342.06;5039635;28;20071;-71
2024/02/02 07:58:13;;;;;;;45.65;20.73;;;;;;;4.29;100.00;98346.69;5034943;28;20041;-71
2024/02/02 08:00:39;;;;;;;40.08;18.88;;;;;;;4.26;100.00;98358.09;5052044;28;20045;-70
2024/02/02 08:03:06;;;;;;;42.05;18.13;;;;;;;4.17;100.00;98359.81;5034041;28;20091;-70
2024/02/02 08:05:36;;;;;;;48.47;19.88;;;;;;;4.19;100.00;98369.25;5037985;28;20391;-71
2024/02/02 08:08:03;;;;;;;41.60;19.73;;;;;;;4.34;100.00;98375.66;5036274;28;20187;-69
2024/02/02 08:10:28;;;;;;;41.20;19.90;;;;;;;4.37;100.00;98366.97;5037006;28;20044;-73
2024/02/02 08:12:54;;;;;;;44.17;18.90;;;;;;;4.38;100.00;98374.81;5038925;28;20049;-71
2024/02/02 08:15:19;;;;;;;42.30;20.17;;;;;;;4.46;100.00;98386.94;5040415;28;20518;-71
2024/02/02 08:17:44;;;;;;;40.67;19.00;;;;;;;4.55;100.00;98392.56;5037749;28;20037;-70
2024/02/02 08:20:10;;;;;;;41.65;19.08;;;;;;;4.65;100.00;98380.81;5016743;28;20048;-72
2024/02/02 08:22:35;;;;;;;44.80;20.02;;;;;;;4.67;100.00;98373.19;5038110;28;20427;-73
2024/02/02 08:25:01;;;;;;;43.75;19.02;;;;;;;4.67;100.00;98381.34;5036250;28;20055;-73
2024/02/02 08:27:26;;;;;;;48.45;20.95;;;;;;;4.65;100.00;98373.47;5033741;28;20048;-73
2024/02/02 08:29:51;;;;;;;46.70;20.40;;;;;;;4.71;100.00;98379.66;5039311;28;20121;-73
2024/02/02 08:32:18;;;;;;;48.75;20.92;;;;;;;4.85;100.00;98383.31;5033089;28;20054;-73
2024/02/02 08:34:43;;;;;;;45.85;21.50;;;;;;;4.83;100.00;98371.94;5037485;28;20542;-73
2024/02/02 08:37:09;;;;;;;54.35;24.23;;;;;;;4.91;100.00;98375.94;5026479;28;20193;-72
2024/02/02 08:39:35;;;;;;;56.63;23.92;;;;;;;4.84;100.00;98370.84;5041232;28;20041;-73
2024/02/02 08:42:01;;;;;;;57.63;24.92;;;;;;;4.86;100.00;98374.09;5037171;28;20037;-73
2024/02/02 08:44:33;;;;;;;58.25;22.77;;;;;;;4.80;100.00;98372.50;5033153;28;20041;-73
2024/02/02 08:46:59;;;;;;;55.90;23.75;;;;;;;4.84;100.00;98381.69;5035712;28;20060;-73
2024/02/02 08:49:47;;;;;;;56.40;23.05;;;;;;;5.07;100.00;98371.13;5038715;28;20053;-73
2024/02/02 08:52:22;;;;;;;50.93;21.60;;;;;;;5.20;100.00;98369.63;5026511;28;20068;-71
2024/02/02 08:54:48;;;;;;;47.67;20.60;;;;;;;5.16;100.00;98358.53;5044057;28;20040;-73
2024/02/02 08:57:16;;;;;;;50.83;21.50;;;;;;;5.07;100.00;98357.56;5039100;28;20056;-73
2024/02/02 08:59:43;;;;;;;48.97;21.83;;;;;;;5.10;100.00;98354.28;5045881;28;20047;-73
2024/02/02 09:02:36;;;;;;;49.95;22.38;;;;;;;5.25;100.00;98350.53;5032828;28;20041;-72
2024/02/02 09:05:23;;;;;;;49.63;22.20;;;;;;;5.16;100.00;98350.38;5062555;28;20493;-71
2024/02/02 09:08:27;;;;;;;44.28;20.60;;;;;;;5.15;100.00;98355.00;5030650;28;20049;-72
2024/02/02 09:11:12;;;;;;;50.47;22.17;;;;;;;5.08;100.00;98365.41;4981703;28;20384;-72
2024/02/02 09:13:41;;;;;;;49.67;22.45;;;;;;;5.32;100.00;98368.09;5046427;28;20056;-72
2024/02/02 09:16:17;;;;;;;43.40;21.23;;;;;;;5.47;100.00;98366.28;5032785;28;20610;-72
2024/02/02 09:18:47;;;;;;;46.88;23.00;;;;;;;5.48;100.00;98370.63;5025997;28;20053;-72
2024/02/02 09:21:17;;;;;;;42.47;21.17;;;;;;;5.48;100.00;98366.00;5039187;28;20128;-72
2024/02/02 09:23:49;;;;;;;44.28;21.60;;;;;;;5.55;100.00;98373.78;5036832;28;20044;-72
2024/02/02 09:26:17;;;;;;;39.28;20.10;;;;;;;5.49;100.00;98375.78;5035555;28;20056;-73
2024/02/02 09:28:44;;;;;;;39.88;20.50;;;;;;;5.68;100.00;98354.03;5038505;28;20052;-71
2024/02/02 09:31:34;;;;;;;35.47;20.27;;;;;;;5.66;100.00;98358.97;5040061;28;20044;-72
2024/02/02 09:34:04;;;;;;;37.58;19.65;;;;;;;5.67;100.00;98363.31;5050128;28;20499;-71
2024/02/02 09:36:30;;;;;;;36.42;18.80;;;;;;;5.49;100.00;98361.34;5051500;28;20051;-73
2024/02/02 09:39:03;;;;;;;36.22;19.30;;;;;;;5.58;100.00;98354.16;5042602;28;20044;-72
2024/02/02 09:41:50;;;;;;;39.15;20.55;;;;;;;5.60;100.00;98343.00;5047285;28;20693;-72
2024/02/02 09:44:47;;;;;;;35.67;20.13;;;;;;;5.55;100.00;98347.41;5044706;28;20040;-71
2024/02/02 09:47:30;;;;;;;41.78;21.50;;;;;;;5.61;100.00;98345.44;5028066;28;20041;-71
2024/02/02 09:50:29;;;;;;;44.97;24.35;;;;;;;5.59;100.00;98335.97;5050880;28;20055;-72
2024/02/02 09:53:06;;;;;;;43.80;23.77;;;;;;;5.58;100.00;98331.63;5043848;28;20041;-72
2024/02/02 09:55:56;;;;;;;76.32;24.65;;;;;;;5.53;100.00;98329.81;5042352;28;20093;-72
2024/02/02 09:58:36;;;;;;;61.28;25.83;;;;;;;5.53;100.00;98336.03;5038079;28;20365;-72
2024/02/02 10:01:20;;;;;;;63.70;25.90;;;;;;;5.33;100.00;98331.69;5036524;28;20049;-71
2024/02/02 10:03:58;;;;;;;49.15;23.55;;;;;;;5.35;100.00;98340.34;5049331;28;20115;-72
2024/02/02 10:06:55;;;;;;;50.83;24.52;;;;;;;5.36;100.00;98333.81;5041136;28;20683;-73
2024/02/02 10:09:35;;;;;;;49.88;24.23;;;;;;;5.43;100.00;98338.88;5027186;28;20086;-72
2024/02/02 10:12:37;;;;;;;47.92;22.98;;;;;;;5.66;100.00;98350.00;5039231;28;20037;-72
2024/02/02 10:15:26;;;;;;;46.72;23.58;;;;;;;5.67;100.00;98347.00;5036817;28;20182;-72
2024/02/02 10:18:19;;;;;;;51.05;24.65;;;;;;;5.69;100.00;98343.97;5040696;28;20052;-74
2024/02/02 10:20:51;;;;;;;44.90;22.50;;;;;;;5.69;100.00;98338.50;5037833;28;20048;-72
2024/02/02 10:23:41;;;;;;;55.58;24.63;;;;;;;5.80;100.00;98345.44;5035603;28;20067;-74
2024/02/02 10:26:18;;;;;;;46.35;23.40;;;;;;;5.87;100.00;98348.59;5034618;28;20073;-73
2024/02/02 10:29:02;;;;;;;63.28;32.67;;;;;;;5.87;100.00;98345.88;5038881;28;20497;-73
2024/02/02 10:31:42;;;;;;;56.20;28.00;;;;;;;5.92;100.00;98337.66;5037605;28;20071;-73
2024/02/02 10:34:32;;;;;;;49.47;24.30;;;;;;;6.07;100.00;98347.50;5034010;28;20438;-71
2024/02/02 10:37:26;;;;;;;43.00;21.42;;;;;;;6.07;100.00;98349.41;5047841;28;20044;-72
2024/02/02 10:40:06;;;;;;;38.80;20.75;;;;;;;6.15;100.00;98358.81;5049107;28;20037;-73
2024/02/02 10:42:44;;;;;;;;;;;;;;;6.22;100.00;98356.53;5038548;28;20138;-70
2024/02/02 10:45:24;;;;;;;40.50;20.38;;;;;;;6.16;100.00;98350.34;5030105;28;19912;-68
2024/02/02 10:48:02;;;;;;;38.40;20.80;;;;;;;6.29;100.00;98349.56;5058267;28;20044;-71
2024/02/02 10:50:58;;;;;;;38.20;20.63;;;;;;;6.29;100.00;98348.78;5038567;28;20041;-72
2024/02/02 10:53:40;;;;;;;36.80;19.90;;;;;;;6.21;100.00;98342.13;5038555;28;20044;-71
2024/02/02 10:56:22;;;;;;;40.53;20.55;;;;;;;6.39;100.00;98345.91;5055583;28;20040;-72
2024/02/02 10:59:11;;;;;;;37.38;21.77;;;;;;;6.60;100.00;98345.53;5041833;28;20045;-71
2024/02/02 11:02:01;;;;;;;42.40;21.40;;;;;;;6.76;100.00;98338.69;5055271;28;20048;-72
2024/02/02 11:04:39;;;;;;;39.00;20.73;;;;;;;6.81;100.00;98340.50;5049326;28;20041;-71
2024/02/02 11:07:13;;;;;;;37.10;20.27;;;;;;;6.96;100.00;98334.75;5034836;28;20048;-72
2024/02/02 11:10:05;;;;;;;36.40;19.75;;;;;;;6.81;100.00;98327.69;5040886;28;20060;-72
2024/02/02 11:12:59;;;;;;;36.67;19.40;;;;;;;6.83;100.00;98327.41;5047426;28;20190;-72
2024/02/02 11:15:37;;;;;;;37.33;19.42;;;;;;;6.87;100.00;98325.66;5028234;28;20370;-72
2024/02/02 11:18:39;;;;;;;40.85;20.17;;;;;;;6.96;100.00;98326.56;5037616;28;20040;-71
2024/02/02 11:21:38;;;;;;;34.55;19.10;;;;;;;6.93;100.00;98326.38;5034004;28;20400;-73
2024/02/02 11:24:06;;;;;;;29.30;17.03;;;;;;;6.93;100.00;98327.16;5033495;28;20037;-72
2024/02/02 11:26:58;;;;;;;34.55;18.63;;;;;;;7.08;100.00;98307.81;5039995;28;20831;-72
2024/02/02 11:30:02;;;;;;;29.15;15.98;;;;;;;7.09;100.00;98294.97;5028525;28;20049;-73